LFAT/LTQ METAR and TAF weather

Enter ICAO airport designator
Station Type Date Time Source
LFAT METAR 2020/09/22 22:30 UTC NOAA

LFAT 222230Z AUTO 15004KT 5000 BR BKN011/// BKN024/// 15/15 Q1007


Station Type Date Time Source
LFAT Decoded METAR 2020/09/22 22:30 UTC NOAA

Le Touquet, France (LFAT) 50-31N 001-37E 14M
Sep 22, 2020 - 06:30 PM EDT / 2020.09.22 2230 UTC
Wind: from the SSE (150 degrees) at 5 MPH (4 KT):0
Visibility: 3 mile(s):0
Sky conditions: mostly cloudy
Weather: mist
Temperature: 59 F (15 C)
Dew Point: 59 F (15 C)
Relative Humidity: 100%
Pressure (altimeter): 29.74 in. Hg (1007 hPa)
ob: LFAT 222230Z AUTO 15004KT 5000 BR BKN011/// BKN024/// 15/15 Q1007
cycle: 22

Station Type Date Time Source
LFAT TAF 2018/07/14 09:21 UTC NOAA

TAF TAF LFAT 140800Z 1409/1421 09004KT 8000 NSC
BECMG 1409/1411 30010KT

Example: see airport list